sensor_id;sensor_type;location;lat;lon;timestamp;P1;durP1;ratioP1;P2;durP2;ratioP2
74904;SDS011;63465;50.862;6.220;2023-04-09T00:01:19;38.77;;;21.63;;
74904;SDS011;63465;50.862;6.220;2023-04-09T00:03:46;38.80;;;20.83;;
74904;SDS011;63465;50.862;6.220;2023-04-09T00:06:13;40.43;;;21.63;;
74904;SDS011;63465;50.862;6.220;2023-04-09T00:08:40;42.97;;;20.87;;
74904;SDS011;63465;50.862;6.220;2023-04-09T00:11:08;40.90;;;21.20;;
74904;SDS011;63465;50.862;6.220;2023-04-09T00:13:34;37.27;;;20.37;;
74904;SDS011;63465;50.862;6.220;2023-04-09T00:16:01;41.23;;;21.83;;
74904;SDS011;63465;50.862;6.220;2023-04-09T00:18:28;39.50;;;20.87;;
74904;SDS011;63465;50.862;6.220;2023-04-09T00:20:54;39.07;;;19.70;;
74904;SDS011;63465;50.862;6.220;2023-04-09T00:23:21;35.90;;;21.17;;
74904;SDS011;63465;50.862;6.220;2023-04-09T00:25:48;37.93;;;20.33;;
74904;SDS011;63465;50.862;6.220;2023-04-09T00:28:16;41.03;;;20.50;;
74904;SDS011;63465;50.862;6.220;2023-04-09T00:30:42;34.97;;;20.47;;
74904;SDS011;63465;50.862;6.220;2023-04-09T00:33:09;39.47;;;20.80;;
74904;SDS011;63465;50.862;6.220;2023-04-09T00:35:36;40.47;;;20.63;;
74904;SDS011;63465;50.862;6.220;2023-04-09T00:38:02;42.43;;;22.13;;
74904;SDS011;63465;50.862;6.220;2023-04-09T00:40:29;38.57;;;19.93;;
74904;SDS011;63465;50.862;6.220;2023-04-09T00:42:56;40.10;;;22.00;;
74904;SDS011;63465;50.862;6.220;2023-04-09T00:45:24;42.53;;;21.97;;
74904;SDS011;63465;50.862;6.220;2023-04-09T00:47:51;39.30;;;20.10;;
74904;SDS011;63465;50.862;6.220;2023-04-09T00:50:18;37.90;;;21.43;;
74904;SDS011;63465;50.862;6.220;2023-04-09T00:52:45;39.43;;;20.87;;
74904;SDS011;63465;50.862;6.220;2023-04-09T00:55:12;37.40;;;21.37;;
74904;SDS011;63465;50.862;6.220;2023-04-09T00:57:39;39.57;;;21.43;;
74904;SDS011;63465;50.862;6.220;2023-04-09T01:00:06;40.73;;;21.53;;
74904;SDS011;63465;50.862;6.220;2023-04-09T01:02:35;42.20;;;22.90;;
74904;SDS011;63465;50.862;6.220;2023-04-09T01:05:02;40.53;;;22.70;;
74904;SDS011;63465;50.862;6.220;2023-04-09T01:07:30;43.43;;;21.83;;
74904;SDS011;63465;50.862;6.220;2023-04-09T01:10:06;40.20;;;22.20;;
74904;SDS011;63465;50.862;6.220;2023-04-09T01:12:45;42.47;;;22.10;;
74904;SDS011;63465;50.862;6.220;2023-04-09T01:15:19;39.80;;;22.53;;
74904;SDS011;63465;50.862;6.220;2023-04-09T01:17:53;41.77;;;21.67;;
74904;SDS011;63465;50.862;6.220;2023-04-09T01:20:27;40.77;;;21.57;;
74904;SDS011;63465;50.862;6.220;2023-04-09T01:22:59;41.13;;;22.03;;
74904;SDS011;63465;50.862;6.220;2023-04-09T01:25:36;37.67;;;20.87;;
74904;SDS011;63465;50.862;6.220;2023-04-09T01:28:14;37.33;;;20.23;;
74904;SDS011;63465;50.862;6.220;2023-04-09T01:30:43;42.40;;;20.40;;
74904;SDS011;63465;50.862;6.220;2023-04-09T01:33:14;42.87;;;21.87;;
74904;SDS011;63465;50.862;6.220;2023-04-09T01:35:43;38.80;;;20.43;;
74904;SDS011;63465;50.862;6.220;2023-04-09T01:38:12;41.23;;;21.03;;
74904;SDS011;63465;50.862;6.220;2023-04-09T01:40:40;35.80;;;20.00;;
74904;SDS011;63465;50.862;6.220;2023-04-09T01:43:08;35.20;;;19.20;;
74904;SDS011;63465;50.862;6.220;2023-04-09T01:45:37;37.37;;;20.27;;
74904;SDS011;63465;50.862;6.220;2023-04-09T01:48:05;39.70;;;20.40;;
74904;SDS011;63465;50.862;6.220;2023-04-09T01:50:32;36.33;;;19.90;;
74904;SDS011;63465;50.862;6.220;2023-04-09T01:52:59;37.07;;;19.60;;
74904;SDS011;63465;50.862;6.220;2023-04-09T01:55:26;35.90;;;19.50;;
74904;SDS011;63465;50.862;6.220;2023-04-09T01:57:53;37.40;;;20.77;;
74904;SDS011;63465;50.862;6.220;2023-04-09T02:00:20;39.63;;;20.20;;
74904;SDS011;63465;50.862;6.220;2023-04-09T02:02:50;44.17;;;22.40;;
74904;SDS011;63465;50.862;6.220;2023-04-09T02:05:22;47.63;;;24.23;;
74904;SDS011;63465;50.862;6.220;2023-04-09T02:07:52;42.00;;;22.73;;
74904;SDS011;63465;50.862;6.220;2023-04-09T02:10:21;44.00;;;22.10;;
74904;SDS011;63465;50.862;6.220;2023-04-09T02:12:51;46.20;;;23.87;;
74904;SDS011;63465;50.862;6.220;2023-04-09T02:15:20;46.60;;;24.90;;
74904;SDS011;63465;50.862;6.220;2023-04-09T02:17:48;46.00;;;23.00;;
74904;SDS011;63465;50.862;6.220;2023-04-09T02:20:15;46.70;;;22.90;;
74904;SDS011;63465;50.862;6.220;2023-04-09T02:22:42;52.00;;;24.90;;
74904;SDS011;63465;50.862;6.220;2023-04-09T02:25:09;44.47;;;23.77;;
74904;SDS011;63465;50.862;6.220;2023-04-09T02:27:36;47.17;;;23.50;;
74904;SDS011;63465;50.862;6.220;2023-04-09T02:30:03;50.97;;;23.37;;
74904;SDS011;63465;50.862;6.220;2023-04-09T02:32:30;44.00;;;22.63;;
74904;SDS011;63465;50.862;6.220;2023-04-09T02:34:58;48.60;;;23.87;;
74904;SDS011;63465;50.862;6.220;2023-04-09T02:37:25;43.27;;;22.90;;
74904;SDS011;63465;50.862;6.220;2023-04-09T02:39:52;44.87;;;22.27;;
74904;SDS011;63465;50.862;6.220;2023-04-09T02:42:19;53.27;;;23.70;;
74904;SDS011;63465;50.862;6.220;2023-04-09T02:44:46;57.70;;;23.73;;
74904;SDS011;63465;50.862;6.220;2023-04-09T02:47:13;47.27;;;24.10;;
74904;SDS011;63465;50.862;6.220;2023-04-09T02:49:40;53.07;;;24.27;;
74904;SDS011;63465;50.862;6.220;2023-04-09T02:52:09;45.13;;;23.50;;
74904;SDS011;63465;50.862;6.220;2023-04-09T02:54:36;46.43;;;24.87;;
74904;SDS011;63465;50.862;6.220;2023-04-09T02:57:03;50.50;;;25.13;;
74904;SDS011;63465;50.862;6.220;2023-04-09T02:59:29;53.43;;;25.40;;
74904;SDS011;63465;50.862;6.220;2023-04-09T03:01:57;55.93;;;25.37;;
74904;SDS011;63465;50.862;6.220;2023-04-09T03:04:24;51.27;;;24.23;;
74904;SDS011;63465;50.862;6.220;2023-04-09T03:06:50;53.90;;;26.00;;
74904;SDS011;63465;50.862;6.220;2023-04-09T03:09:18;53.73;;;24.97;;
74904;SDS011;63465;50.862;6.220;2023-04-09T03:11:45;44.73;;;23.27;;
74904;SDS011;63465;50.862;6.220;2023-04-09T03:14:12;51.70;;;24.70;;
74904;SDS011;63465;50.862;6.220;2023-04-09T03:16:38;54.57;;;25.57;;
74904;SDS011;63465;50.862;6.220;2023-04-09T03:19:05;54.00;;;26.97;;
74904;SDS011;63465;50.862;6.220;2023-04-09T03:21:32;50.17;;;24.73;;
74904;SDS011;63465;50.862;6.220;2023-04-09T03:23:59;50.53;;;24.03;;
74904;SDS011;63465;50.862;6.220;2023-04-09T03:26:27;47.10;;;24.70;;
74904;SDS011;63465;50.862;6.220;2023-04-09T03:29:01;47.17;;;23.30;;
74904;SDS011;63465;50.862;6.220;2023-04-09T03:31:27;44.00;;;24.00;;
74904;SDS011;63465;50.862;6.220;2023-04-09T03:33:55;51.20;;;24.70;;
74904;SDS011;63465;50.862;6.220;2023-04-09T03:36:22;45.70;;;23.80;;
74904;SDS011;63465;50.862;6.220;2023-04-09T03:39:01;44.30;;;23.57;;
74904;SDS011;63465;50.862;6.220;2023-04-09T03:41:35;49.03;;;25.10;;
74904;SDS011;63465;50.862;6.220;2023-04-09T03:44:06;45.27;;;23.57;;
74904;SDS011;63465;50.862;6.220;2023-04-09T03:46:43;47.97;;;24.80;;
74904;SDS011;63465;50.862;6.220;2023-04-09T03:49:14;50.90;;;26.10;;
74904;SDS011;63465;50.862;6.220;2023-04-09T03:51:42;48.90;;;25.57;;
74904;SDS011;63465;50.862;6.220;2023-04-09T03:54:09;47.87;;;23.90;;
74904;SDS011;63465;50.862;6.220;2023-04-09T03:56:37;45.97;;;24.33;;
74904;SDS011;63465;50.862;6.220;2023-04-09T03:59:07;51.03;;;24.47;;
74904;SDS011;63465;50.862;6.220;2023-04-09T04:01:38;54.77;;;25.17;;
74904;SDS011;63465;50.862;6.220;2023-04-09T04:04:05;50.30;;;24.30;;
74904;SDS011;63465;50.862;6.220;2023-04-09T04:06:36;64.43;;;26.23;;
74904;SDS011;63465;50.862;6.220;2023-04-09T04:09:26;56.60;;;25.57;;
74904;SDS011;63465;50.862;6.220;2023-04-09T04:12:01;51.60;;;24.87;;
74904;SDS011;63465;50.862;6.220;2023-04-09T04:14:48;52.60;;;24.50;;
74904;SDS011;63465;50.862;6.220;2023-04-09T04:17:31;54.83;;;25.77;;
74904;SDS011;63465;50.862;6.220;2023-04-09T04:20:00;55.57;;;26.97;;
74904;SDS011;63465;50.862;6.220;2023-04-09T04:22:30;68.07;;;26.60;;
74904;SDS011;63465;50.862;6.220;2023-04-09T04:24:59;57.37;;;26.60;;
74904;SDS011;63465;50.862;6.220;2023-04-09T04:27:28;63.37;;;25.53;;
74904;SDS011;63465;50.862;6.220;2023-04-09T04:29:56;51.30;;;25.17;;
74904;SDS011;63465;50.862;6.220;2023-04-09T04:32:50;52.07;;;24.17;;
74904;SDS011;63465;50.862;6.220;2023-04-09T04:35:17;51.30;;;24.07;;
74904;SDS011;63465;50.862;6.220;2023-04-09T04:37:44;53.27;;;25.93;;
74904;SDS011;63465;50.862;6.220;2023-04-09T04:40:14;54.80;;;26.13;;
74904;SDS011;63465;50.862;6.220;2023-04-09T04:42:42;57.13;;;25.47;;
74904;SDS011;63465;50.862;6.220;2023-04-09T04:45:13;51.20;;;23.30;;
74904;SDS011;63465;50.862;6.220;2023-04-09T04:47:44;52.13;;;24.87;;
74904;SDS011;63465;50.862;6.220;2023-04-09T04:50:12;64.13;;;26.10;;
74904;SDS011;63465;50.862;6.220;2023-04-09T04:52:52;53.60;;;24.93;;
74904;SDS011;63465;50.862;6.220;2023-04-09T04:55:21;58.03;;;25.40;;
74904;SDS011;63465;50.862;6.220;2023-04-09T04:57:50;60.67;;;25.97;;
74904;SDS011;63465;50.862;6.220;2023-04-09T05:00:20;62.57;;;26.47;;
74904;SDS011;63465;50.862;6.220;2023-04-09T05:02:47;62.17;;;25.40;;
74904;SDS011;63465;50.862;6.220;2023-04-09T05:05:18;59.23;;;26.17;;
74904;SDS011;63465;50.862;6.220;2023-04-09T05:07:50;57.03;;;26.90;;
74904;SDS011;63465;50.862;6.220;2023-04-09T05:10:17;59.07;;;26.53;;
74904;SDS011;63465;50.862;6.220;2023-04-09T05:12:45;61.63;;;27.67;;
74904;SDS011;63465;50.862;6.220;2023-04-09T05:15:20;60.07;;;27.13;;
74904;SDS011;63465;50.862;6.220;2023-04-09T05:17:47;54.60;;;25.80;;
74904;SDS011;63465;50.862;6.220;2023-04-09T05:20:15;59.60;;;28.77;;
74904;SDS011;63465;50.862;6.220;2023-04-09T05:22:49;58.77;;;26.57;;
74904;SDS011;63465;50.862;6.220;2023-04-09T05:25:19;59.40;;;27.07;;
74904;SDS011;63465;50.862;6.220;2023-04-09T05:27:46;55.63;;;25.40;;
74904;SDS011;63465;50.862;6.220;2023-04-09T05:30:13;59.90;;;26.37;;
74904;SDS011;63465;50.862;6.220;2023-04-09T05:32:42;57.97;;;25.40;;
74904;SDS011;63465;50.862;6.220;2023-04-09T05:35:09;57.43;;;25.17;;
74904;SDS011;63465;50.862;6.220;2023-04-09T05:37:39;64.60;;;28.20;;
74904;SDS011;63465;50.862;6.220;2023-04-09T05:40:06;57.40;;;25.70;;
74904;SDS011;63465;50.862;6.220;2023-04-09T05:42:33;56.23;;;25.43;;
74904;SDS011;63465;50.862;6.220;2023-04-09T05:45:04;54.90;;;25.77;;
74904;SDS011;63465;50.862;6.220;2023-04-09T05:47:32;51.83;;;26.20;;
74904;SDS011;63465;50.862;6.220;2023-04-09T05:50:18;53.40;;;25.00;;
74904;SDS011;63465;50.862;6.220;2023-04-09T05:52:45;52.97;;;25.60;;
74904;SDS011;63465;50.862;6.220;2023-04-09T05:55:13;59.90;;;26.17;;
74904;SDS011;63465;50.862;6.220;2023-04-09T05:57:47;53.97;;;25.03;;
74904;SDS011;63465;50.862;6.220;2023-04-09T06:00:17;54.67;;;25.80;;
74904;SDS011;63465;50.862;6.220;2023-04-09T06:02:46;58.60;;;26.53;;
74904;SDS011;63465;50.862;6.220;2023-04-09T06:05:12;60.37;;;27.90;;
74904;SDS011;63465;50.862;6.220;2023-04-09T06:07:41;55.77;;;27.70;;
74904;SDS011;63465;50.862;6.220;2023-04-09T06:10:07;59.10;;;26.27;;
74904;SDS011;63465;50.862;6.220;2023-04-09T06:12:34;57.90;;;25.93;;
74904;SDS011;63465;50.862;6.220;2023-04-09T06:15:02;54.03;;;24.73;;
74904;SDS011;63465;50.862;6.220;2023-04-09T06:17:29;54.37;;;26.30;;
74904;SDS011;63465;50.862;6.220;2023-04-09T06:19:56;53.30;;;25.70;;
74904;SDS011;63465;50.862;6.220;2023-04-09T06:22:23;54.23;;;25.53;;
74904;SDS011;63465;50.862;6.220;2023-04-09T06:24:51;54.07;;;26.30;;
74904;SDS011;63465;50.862;6.220;2023-04-09T06:27:17;52.57;;;26.83;;
74904;SDS011;63465;50.862;6.220;2023-04-09T06:29:46;58.13;;;26.90;;
74904;SDS011;63465;50.862;6.220;2023-04-09T06:32:12;50.37;;;24.40;;
74904;SDS011;63465;50.862;6.220;2023-04-09T06:34:39;53.30;;;24.87;;
74904;SDS011;63465;50.862;6.220;2023-04-09T06:37:06;50.90;;;25.13;;
74904;SDS011;63465;50.862;6.220;2023-04-09T06:39:32;49.30;;;25.20;;
74904;SDS011;63465;50.862;6.220;2023-04-09T06:42:00;50.90;;;26.23;;
74904;SDS011;63465;50.862;6.220;2023-04-09T06:44:47;51.30;;;24.47;;
74904;SDS011;63465;50.862;6.220;2023-04-09T06:47:14;63.93;;;26.73;;
74904;SDS011;63465;50.862;6.220;2023-04-09T06:49:40;48.80;;;25.20;;
74904;SDS011;63465;50.862;6.220;2023-04-09T06:52:07;50.63;;;25.90;;
74904;SDS011;63465;50.862;6.220;2023-04-09T06:54:33;53.33;;;25.23;;
74904;SDS011;63465;50.862;6.220;2023-04-09T06:57:02;53.13;;;25.67;;
74904;SDS011;63465;50.862;6.220;2023-04-09T06:59:28;59.83;;;25.97;;
74904;SDS011;63465;50.862;6.220;2023-04-09T07:01:56;53.00;;;26.10;;
74904;SDS011;63465;50.862;6.220;2023-04-09T07:04:22;51.27;;;26.10;;
74904;SDS011;63465;50.862;6.220;2023-04-09T07:06:49;49.20;;;25.67;;
74904;SDS011;63465;50.862;6.220;2023-04-09T07:09:16;54.90;;;27.20;;
74904;SDS011;63465;50.862;6.220;2023-04-09T07:11:43;52.57;;;26.23;;
74904;SDS011;63465;50.862;6.220;2023-04-09T07:14:11;53.77;;;27.37;;
74904;SDS011;63465;50.862;6.220;2023-04-09T07:16:38;55.33;;;26.80;;
74904;SDS011;63465;50.862;6.220;2023-04-09T07:19:05;57.23;;;28.00;;
74904;SDS011;63465;50.862;6.220;2023-04-09T07:21:32;47.47;;;25.30;;
74904;SDS011;63465;50.862;6.220;2023-04-09T07:23:58;61.73;;;27.33;;
74904;SDS011;63465;50.862;6.220;2023-04-09T07:26:26;52.53;;;25.50;;
74904;SDS011;63465;50.862;6.220;2023-04-09T07:28:53;49.50;;;25.00;;
74904;SDS011;63465;50.862;6.220;2023-04-09T07:31:21;49.17;;;24.97;;
74904;SDS011;63465;50.862;6.220;2023-04-09T07:33:48;52.30;;;26.60;;
74904;SDS011;63465;50.862;6.220;2023-04-09T07:36:15;48.27;;;24.07;;
74904;SDS011;63465;50.862;6.220;2023-04-09T07:38:41;45.17;;;24.10;;
74904;SDS011;63465;50.862;6.220;2023-04-09T07:41:09;43.77;;;21.27;;
74904;SDS011;63465;50.862;6.220;2023-04-09T07:43:36;46.70;;;21.80;;
74904;SDS011;63465;50.862;6.220;2023-04-09T07:46:02;51.43;;;23.87;;
74904;SDS011;63465;50.862;6.220;2023-04-09T07:48:31;52.13;;;24.30;;
74904;SDS011;63465;50.862;6.220;2023-04-09T07:50:57;42.67;;;22.50;;
74904;SDS011;63465;50.862;6.220;2023-04-09T07:53:24;44.00;;;23.57;;
74904;SDS011;63465;50.862;6.220;2023-04-09T07:55:51;53.07;;;23.47;;
74904;SDS011;63465;50.862;6.220;2023-04-09T07:58:17;45.00;;;22.80;;
74904;SDS011;63465;50.862;6.220;2023-04-09T08:00:44;41.50;;;22.00;;
74904;SDS011;63465;50.862;6.220;2023-04-09T08:03:11;41.50;;;21.70;;
74904;SDS011;63465;50.862;6.220;2023-04-09T08:05:39;40.83;;;22.10;;
74904;SDS011;63465;50.862;6.220;2023-04-09T08:08:06;36.83;;;20.63;;
74904;SDS011;63465;50.862;6.220;2023-04-09T08:10:32;44.87;;;22.33;;
74904;SDS011;63465;50.862;6.220;2023-04-09T08:12:59;36.60;;;20.37;;
74904;SDS011;63465;50.862;6.220;2023-04-09T08:15:26;38.97;;;21.50;;
74904;SDS011;63465;50.862;6.220;2023-04-09T08:17:52;38.67;;;20.90;;
74904;SDS011;63465;50.862;6.220;2023-04-09T08:20:19;42.00;;;22.13;;
74904;SDS011;63465;50.862;6.220;2023-04-09T08:22:47;43.33;;;21.53;;
74904;SDS011;63465;50.862;6.220;2023-04-09T08:25:14;39.70;;;20.43;;
74904;SDS011;63465;50.862;6.220;2023-04-09T08:27:41;40.67;;;21.83;;
74904;SDS011;63465;50.862;6.220;2023-04-09T08:30:08;34.53;;;19.33;;
74904;SDS011;63465;50.862;6.220;2023-04-09T08:32:35;32.87;;;19.37;;
74904;SDS011;63465;50.862;6.220;2023-04-09T08:35:02;33.70;;;19.57;;
74904;SDS011;63465;50.862;6.220;2023-04-09T08:37:29;32.80;;;17.07;;
74904;SDS011;63465;50.862;6.220;2023-04-09T08:39:57;36.33;;;17.40;;
74904;SDS011;63465;50.862;6.220;2023-04-09T08:42:24;26.10;;;16.97;;
74904;SDS011;63465;50.862;6.220;2023-04-09T08:44:52;23.10;;;14.13;;
74904;SDS011;63465;50.862;6.220;2023-04-09T08:47:19;22.80;;;15.60;;
74904;SDS011;63465;50.862;6.220;2023-04-09T08:49:46;20.77;;;12.90;;
74904;SDS011;63465;50.862;6.220;2023-04-09T08:52:14;22.30;;;11.20;;
74904;SDS011;63465;50.862;6.220;2023-04-09T08:54:46;16.83;;;10.70;;
74904;SDS011;63465;50.862;6.220;2023-04-09T08:57:14;13.10;;;9.40;;
74904;SDS011;63465;50.862;6.220;2023-04-09T08:59:41;17.53;;;9.67;;
74904;SDS011;63465;50.862;6.220;2023-04-09T09:02:08;15.50;;;9.93;;
74904;SDS011;63465;50.862;6.220;2023-04-09T09:04:45;19.33;;;10.00;;
74904;SDS011;63465;50.862;6.220;2023-04-09T09:07:13;14.17;;;9.37;;
74904;SDS011;63465;50.862;6.220;2023-04-09T09:09:50;9.87;;;7.83;;
74904;SDS011;63465;50.862;6.220;2023-04-09T09:12:32;9.53;;;6.60;;
74904;SDS011;63465;50.862;6.220;2023-04-09T09:15:01;10.57;;;7.40;;
74904;SDS011;63465;50.862;6.220;2023-04-09T09:17:28;9.20;;;6.43;;
74904;SDS011;63465;50.862;6.220;2023-04-09T09:19:55;5.83;;;4.97;;
74904;SDS011;63465;50.862;6.220;2023-04-09T09:22:22;6.67;;;4.87;;
74904;SDS011;63465;50.862;6.220;2023-04-09T09:24:51;6.13;;;4.90;;
74904;SDS011;63465;50.862;6.220;2023-04-09T09:27:32;7.00;;;4.83;;
74904;SDS011;63465;50.862;6.220;2023-04-09T09:30:01;6.70;;;4.80;;
74904;SDS011;63465;50.862;6.220;2023-04-09T09:32:29;7.07;;;5.30;;
74904;SDS011;63465;50.862;6.220;2023-04-09T09:34:57;7.90;;;5.70;;
74904;SDS011;63465;50.862;6.220;2023-04-09T09:37:25;8.17;;;5.93;;
74904;SDS011;63465;50.862;6.220;2023-04-09T09:39:52;8.27;;;5.57;;
74904;SDS011;63465;50.862;6.220;2023-04-09T09:42:19;6.63;;;5.00;;
74904;SDS011;63465;50.862;6.220;2023-04-09T09:44:47;6.50;;;5.30;;
74904;SDS011;63465;50.862;6.220;2023-04-09T09:47:16;7.60;;;5.90;;
74904;SDS011;63465;50.862;6.220;2023-04-09T09:49:46;7.17;;;5.37;;
74904;SDS011;63465;50.862;6.220;2023-04-09T09:52:13;6.97;;;5.50;;
74904;SDS011;63465;50.862;6.220;2023-04-09T09:54:41;5.17;;;4.37;;
74904;SDS011;63465;50.862;6.220;2023-04-09T09:57:12;8.13;;;5.03;;
74904;SDS011;63465;50.862;6.220;2023-04-09T09:59:45;7.00;;;5.60;;
74904;SDS011;63465;50.862;6.220;2023-04-09T10:02:18;9.37;;;6.10;;
74904;SDS011;63465;50.862;6.220;2023-04-09T10:04:46;5.30;;;4.70;;
74904;SDS011;63465;50.862;6.220;2023-04-09T10:07:14;7.40;;;5.00;;
74904;SDS011;63465;50.862;6.220;2023-04-09T10:09:44;7.90;;;4.97;;
74904;SDS011;63465;50.862;6.220;2023-04-09T10:12:15;10.60;;;6.10;;
74904;SDS011;63465;50.862;6.220;2023-04-09T10:14:48;8.40;;;5.30;;
74904;SDS011;63465;50.862;6.220;2023-04-09T10:17:17;6.67;;;5.70;;
74904;SDS011;63465;50.862;6.220;2023-04-09T10:19:46;7.37;;;5.20;;
74904;SDS011;63465;50.862;6.220;2023-04-09T10:22:20;6.37;;;5.20;;
74904;SDS011;63465;50.862;6.220;2023-04-09T10:24:51;7.10;;;5.50;;
74904;SDS011;63465;50.862;6.220;2023-04-09T10:27:19;7.73;;;4.93;;
74904;SDS011;63465;50.862;6.220;2023-04-09T10:29:48;6.80;;;5.73;;
74904;SDS011;63465;50.862;6.220;2023-04-09T10:32:17;6.60;;;5.43;;
74904;SDS011;63465;50.862;6.220;2023-04-09T10:34:45;8.07;;;5.37;;
74904;SDS011;63465;50.862;6.220;2023-04-09T10:37:13;9.33;;;5.30;;
74904;SDS011;63465;50.862;6.220;2023-04-09T10:39:43;7.70;;;5.07;;
74904;SDS011;63465;50.862;6.220;2023-04-09T10:42:12;8.33;;;5.60;;
74904;SDS011;63465;50.862;6.220;2023-04-09T10:44:40;9.43;;;6.10;;
74904;SDS011;63465;50.862;6.220;2023-04-09T10:47:08;8.40;;;5.70;;
74904;SDS011;63465;50.862;6.220;2023-04-09T10:49:36;6.73;;;5.30;;
74904;SDS011;63465;50.862;6.220;2023-04-09T10:52:04;5.30;;;4.43;;
74904;SDS011;63465;50.862;6.220;2023-04-09T10:54:39;7.40;;;6.37;;
74904;SDS011;63465;50.862;6.220;2023-04-09T10:57:10;6.50;;;5.47;;
74904;SDS011;63465;50.862;6.220;2023-04-09T10:59:47;6.80;;;5.50;;
74904;SDS011;63465;50.862;6.220;2023-04-09T11:02:26;12.23;;;7.47;;
74904;SDS011;63465;50.862;6.220;2023-04-09T11:05:14;47.50;;;32.73;;
74904;SDS011;63465;50.862;6.220;2023-04-09T11:07:46;15.03;;;11.83;;
74904;SDS011;63465;50.862;6.220;2023-04-09T11:10:18;11.10;;;8.80;;
74904;SDS011;63465;50.862;6.220;2023-04-09T11:12:45;7.20;;;5.60;;
74904;SDS011;63465;50.862;6.220;2023-04-09T11:15:16;5.83;;;4.90;;
74904;SDS011;63465;50.862;6.220;2023-04-09T11:17:45;22.03;;;18.77;;
74904;SDS011;63465;50.862;6.220;2023-04-09T11:20:13;38.67;;;31.07;;
74904;SDS011;63465;50.862;6.220;2023-04-09T11:22:40;51.17;;;39.37;;
74904;SDS011;63465;50.862;6.220;2023-04-09T11:25:07;9.20;;;8.23;;
74904;SDS011;63465;50.862;6.220;2023-04-09T11:27:35;7.93;;;6.93;;
74904;SDS011;63465;50.862;6.220;2023-04-09T11:30:03;8.53;;;6.33;;
74904;SDS011;63465;50.862;6.220;2023-04-09T11:32:31;14.40;;;9.80;;
74904;SDS011;63465;50.862;6.220;2023-04-09T11:35:00;13.10;;;11.70;;
74904;SDS011;63465;50.862;6.220;2023-04-09T11:37:27;8.20;;;5.33;;
74904;SDS011;63465;50.862;6.220;2023-04-09T11:39:54;6.50;;;4.23;;
74904;SDS011;63465;50.862;6.220;2023-04-09T11:42:22;7.20;;;5.33;;
74904;SDS011;63465;50.862;6.220;2023-04-09T11:44:49;9.03;;;5.97;;
74904;SDS011;63465;50.862;6.220;2023-04-09T11:47:18;8.33;;;6.33;;
74904;SDS011;63465;50.862;6.220;2023-04-09T11:49:46;8.03;;;5.50;;
74904;SDS011;63465;50.862;6.220;2023-04-09T11:52:14;6.53;;;5.40;;
74904;SDS011;63465;50.862;6.220;2023-04-09T11:54:41;5.03;;;4.30;;
74904;SDS011;63465;50.862;6.220;2023-04-09T11:57:13;4.63;;;4.17;;
74904;SDS011;63465;50.862;6.220;2023-04-09T11:59:40;5.97;;;4.40;;
74904;SDS011;63465;50.862;6.220;2023-04-09T12:02:07;9.37;;;8.17;;
74904;SDS011;63465;50.862;6.220;2023-04-09T12:04:34;9.03;;;7.47;;
74904;SDS011;63465;50.862;6.220;2023-04-09T12:07:00;57.20;;;51.10;;
74904;SDS011;63465;50.862;6.220;2023-04-09T12:09:29;5.93;;;5.23;;
74904;SDS011;63465;50.862;6.220;2023-04-09T12:11:55;23.40;;;15.30;;
74904;SDS011;63465;50.862;6.220;2023-04-09T12:14:26;10.80;;;7.90;;
74904;SDS011;63465;50.862;6.220;2023-04-09T12:16:53;7.60;;;4.93;;
74904;SDS011;63465;50.862;6.220;2023-04-09T12:19:23;9.30;;;8.40;;
74904;SDS011;63465;50.862;6.220;2023-04-09T12:21:52;7.37;;;6.50;;
74904;SDS011;63465;50.862;6.220;2023-04-09T12:24:21;6.47;;;5.10;;
74904;SDS011;63465;50.862;6.220;2023-04-09T12:26:50;6.67;;;4.70;;
74904;SDS011;63465;50.862;6.220;2023-04-09T12:29:18;7.07;;;5.03;;
74904;SDS011;63465;50.862;6.220;2023-04-09T12:31:45;20.80;;;16.77;;
74904;SDS011;63465;50.862;6.220;2023-04-09T12:34:12;26.67;;;20.87;;
74904;SDS011;63465;50.862;6.220;2023-04-09T12:36:39;10.90;;;8.37;;
74904;SDS011;63465;50.862;6.220;2023-04-09T12:39:07;16.80;;;12.93;;
74904;SDS011;63465;50.862;6.220;2023-04-09T12:41:34;45.40;;;31.17;;
74904;SDS011;63465;50.862;6.220;2023-04-09T12:44:02;41.33;;;25.90;;
74904;SDS011;63465;50.862;6.220;2023-04-09T12:46:29;12.43;;;8.30;;
74904;SDS011;63465;50.862;6.220;2023-04-09T12:48:56;15.93;;;9.77;;
74904;SDS011;63465;50.862;6.220;2023-04-09T12:51:23;17.73;;;11.83;;
74904;SDS011;63465;50.862;6.220;2023-04-09T12:53:50;31.93;;;19.00;;
74904;SDS011;63465;50.862;6.220;2023-04-09T12:59:06;47.43;;;27.47;;
74904;SDS011;63465;50.862;6.220;2023-04-09T13:01:33;24.60;;;12.73;;
74904;SDS011;63465;50.862;6.220;2023-04-09T13:04:00;38.70;;;19.73;;
74904;SDS011;63465;50.862;6.220;2023-04-09T13:06:26;9.77;;;7.10;;
74904;SDS011;63465;50.862;6.220;2023-04-09T13:08:53;8.40;;;6.00;;
74904;SDS011;63465;50.862;6.220;2023-04-09T13:11:20;16.23;;;12.03;;
74904;SDS011;63465;50.862;6.220;2023-04-09T13:13:47;52.43;;;32.60;;
74904;SDS011;63465;50.862;6.220;2023-04-09T13:16:15;10.57;;;7.13;;
74904;SDS011;63465;50.862;6.220;2023-04-09T13:18:42;15.90;;;10.70;;
74904;SDS011;63465;50.862;6.220;2023-04-09T13:21:08;8.00;;;5.60;;
74904;SDS011;63465;50.862;6.220;2023-04-09T13:23:35;7.00;;;4.70;;
74904;SDS011;63465;50.862;6.220;2023-04-09T13:26:02;11.10;;;7.70;;
74904;SDS011;63465;50.862;6.220;2023-04-09T13:28:29;11.80;;;8.33;;
74904;SDS011;63465;50.862;6.220;2023-04-09T13:30:55;10.23;;;7.33;;
74904;SDS011;63465;50.862;6.220;2023-04-09T13:33:23;8.57;;;5.90;;
74904;SDS011;63465;50.862;6.220;2023-04-09T13:35:50;13.87;;;9.83;;
74904;SDS011;63465;50.862;6.220;2023-04-09T13:38:17;18.90;;;12.03;;
74904;SDS011;63465;50.862;6.220;2023-04-09T13:40:44;28.00;;;19.03;;
74904;SDS011;63465;50.862;6.220;2023-04-09T13:43:10;11.80;;;8.50;;
74904;SDS011;63465;50.862;6.220;2023-04-09T13:45:37;13.10;;;9.43;;
74904;SDS011;63465;50.862;6.220;2023-04-09T13:48:05;8.40;;;5.70;;
74904;SDS011;63465;50.862;6.220;2023-04-09T13:50:33;12.00;;;8.00;;
74904;SDS011;63465;50.862;6.220;2023-04-09T13:53:00;9.77;;;6.67;;
74904;SDS011;63465;50.862;6.220;2023-04-09T13:55:29;9.67;;;6.60;;
74904;SDS011;63465;50.862;6.220;2023-04-09T13:57:56;19.13;;;13.30;;
74904;SDS011;63465;50.862;6.220;2023-04-09T14:00:22;9.97;;;8.30;;
74904;SDS011;63465;50.862;6.220;2023-04-09T14:02:49;7.77;;;5.97;;
74904;SDS011;63465;50.862;6.220;2023-04-09T14:05:16;7.20;;;5.50;;
74904;SDS011;63465;50.862;6.220;2023-04-09T14:07:44;7.00;;;4.93;;
74904;SDS011;63465;50.862;6.220;2023-04-09T14:10:10;7.40;;;5.17;;
74904;SDS011;63465;50.862;6.220;2023-04-09T14:12:37;8.07;;;5.27;;
74904;SDS011;63465;50.862;6.220;2023-04-09T14:15:04;6.70;;;5.00;;
74904;SDS011;63465;50.862;6.220;2023-04-09T14:17:32;7.93;;;6.33;;
74904;SDS011;63465;50.862;6.220;2023-04-09T14:19:59;7.87;;;5.60;;
74904;SDS011;63465;50.862;6.220;2023-04-09T14:22:27;8.30;;;5.23;;
74904;SDS011;63465;50.862;6.220;2023-04-09T14:24:56;7.43;;;5.07;;
74904;SDS011;63465;50.862;6.220;2023-04-09T14:27:23;6.60;;;4.97;;
74904;SDS011;63465;50.862;6.220;2023-04-09T14:29:50;4.87;;;4.37;;
74904;SDS011;63465;50.862;6.220;2023-04-09T14:32:17;7.37;;;5.23;;
74904;SDS011;63465;50.862;6.220;2023-04-09T14:34:44;13.10;;;6.37;;
74904;SDS011;63465;50.862;6.220;2023-04-09T14:37:11;15.93;;;9.27;;
74904;SDS011;63465;50.862;6.220;2023-04-09T14:39:38;13.07;;;8.20;;